sensor_id;sensor_type;location;lat;lon;timestamp;P1;durP1;ratioP1;P2;durP2;ratioP2
47896;SDS011;39629;51.400;5.494;2022-11-15T00:03:14;16.20;;;8.43;;
47896;SDS011;39629;51.400;5.494;2022-11-15T00:08:35;17.90;;;8.43;;
47896;SDS011;39629;51.400;5.494;2022-11-15T00:13:56;15.07;;;8.25;;
47896;SDS011;39629;51.400;5.494;2022-11-15T00:19:17;19.20;;;8.73;;
47896;SDS011;39629;51.400;5.494;2022-11-15T00:24:37;14.90;;;8.25;;
47896;SDS011;39629;51.400;5.494;2022-11-15T00:29:58;17.23;;;9.18;;
47896;SDS011;39629;51.400;5.494;2022-11-15T00:35:19;15.52;;;8.43;;
47896;SDS011;39629;51.400;5.494;2022-11-15T00:40:40;15.80;;;8.00;;
47896;SDS011;39629;51.400;5.494;2022-11-15T00:46:01;18.63;;;8.82;;
47896;SDS011;39629;51.400;5.494;2022-11-15T00:51:21;17.80;;;8.45;;
47896;SDS011;39629;51.400;5.494;2022-11-15T00:56:42;13.82;;;8.10;;
47896;SDS011;39629;51.400;5.494;2022-11-15T01:02:03;18.25;;;8.43;;
47896;SDS011;39629;51.400;5.494;2022-11-15T01:07:23;18.63;;;9.55;;
47896;SDS011;39629;51.400;5.494;2022-11-15T01:12:44;17.38;;;9.23;;
47896;SDS011;39629;51.400;5.494;2022-11-15T01:18:05;17.40;;;9.10;;
47896;SDS011;39629;51.400;5.494;2022-11-15T01:23:26;20.20;;;9.15;;
47896;SDS011;39629;51.400;5.494;2022-11-15T01:28:46;18.58;;;9.73;;
47896;SDS011;39629;51.400;5.494;2022-11-15T01:34:07;19.70;;;9.00;;
47896;SDS011;39629;51.400;5.494;2022-11-15T01:39:27;18.38;;;9.30;;
47896;SDS011;39629;51.400;5.494;2022-11-15T01:44:49;16.98;;;8.30;;
47896;SDS011;39629;51.400;5.494;2022-11-15T01:50:12;18.98;;;9.43;;
47896;SDS011;39629;51.400;5.494;2022-11-15T01:55:35;19.43;;;9.27;;
47896;SDS011;39629;51.400;5.494;2022-11-15T02:00:55;22.17;;;10.25;;
47896;SDS011;39629;51.400;5.494;2022-11-15T02:06:17;19.10;;;9.95;;
47896;SDS011;39629;51.400;5.494;2022-11-15T02:11:38;17.08;;;9.02;;
47896;SDS011;39629;51.400;5.494;2022-11-15T02:16:59;18.30;;;9.05;;
47896;SDS011;39629;51.400;5.494;2022-11-15T02:22:32;19.35;;;9.90;;
47896;SDS011;39629;51.400;5.494;2022-11-15T02:28:10;17.98;;;9.52;;
47896;SDS011;39629;51.400;5.494;2022-11-15T02:33:51;15.90;;;9.23;;
47896;SDS011;39629;51.400;5.494;2022-11-15T02:39:18;17.23;;;7.45;;
47896;SDS011;39629;51.400;5.494;2022-11-15T02:44:44;15.57;;;9.18;;
47896;SDS011;39629;51.400;5.494;2022-11-15T02:50:08;16.83;;;8.98;;
47896;SDS011;39629;51.400;5.494;2022-11-15T02:55:30;17.83;;;9.07;;
47896;SDS011;39629;51.400;5.494;2022-11-15T03:00:53;15.77;;;8.48;;
47896;SDS011;39629;51.400;5.494;2022-11-15T03:06:22;17.38;;;8.05;;
47896;SDS011;39629;51.400;5.494;2022-11-15T03:11:55;16.65;;;8.55;;
47896;SDS011;39629;51.400;5.494;2022-11-15T03:17:22;18.15;;;9.00;;
47896;SDS011;39629;51.400;5.494;2022-11-15T03:22:46;18.00;;;8.45;;
47896;SDS011;39629;51.400;5.494;2022-11-15T03:28:08;14.45;;;8.25;;
47896;SDS011;39629;51.400;5.494;2022-11-15T03:33:32;19.67;;;8.75;;
47896;SDS011;39629;51.400;5.494;2022-11-15T03:38:55;17.80;;;9.95;;
47896;SDS011;39629;51.400;5.494;2022-11-15T03:44:21;22.50;;;10.85;;
47896;SDS011;39629;51.400;5.494;2022-11-15T03:49:53;19.70;;;9.75;;
47896;SDS011;39629;51.400;5.494;2022-11-15T03:55:19;18.85;;;9.73;;
47896;SDS011;39629;51.400;5.494;2022-11-15T04:00:41;21.35;;;10.15;;
47896;SDS011;39629;51.400;5.494;2022-11-15T04:06:01;20.02;;;9.85;;
47896;SDS011;39629;51.400;5.494;2022-11-15T04:11:22;17.20;;;10.35;;
47896;SDS011;39629;51.400;5.494;2022-11-15T04:16:42;20.17;;;9.60;;
47896;SDS011;39629;51.400;5.494;2022-11-15T04:22:02;20.92;;;9.85;;
47896;SDS011;39629;51.400;5.494;2022-11-15T04:27:50;18.95;;;10.13;;
47896;SDS011;39629;51.400;5.494;2022-11-15T04:33:10;20.17;;;9.70;;
47896;SDS011;39629;51.400;5.494;2022-11-15T04:38:30;17.45;;;9.38;;
47896;SDS011;39629;51.400;5.494;2022-11-15T04:49:38;18.05;;;9.32;;
47896;SDS011;39629;51.400;5.494;2022-11-15T04:54:58;17.10;;;9.00;;
47896;SDS011;39629;51.400;5.494;2022-11-15T05:00:19;18.40;;;10.05;;
47896;SDS011;39629;51.400;5.494;2022-11-15T05:05:40;15.98;;;7.97;;
47896;SDS011;39629;51.400;5.494;2022-11-15T05:11:00;14.77;;;7.93;;
47896;SDS011;39629;51.400;5.494;2022-11-15T05:16:21;17.88;;;8.80;;
47896;SDS011;39629;51.400;5.494;2022-11-15T05:21:42;15.30;;;7.85;;
47896;SDS011;39629;51.400;5.494;2022-11-15T05:27:02;17.23;;;8.88;;
47896;SDS011;39629;51.400;5.494;2022-11-15T05:32:23;16.92;;;8.35;;
47896;SDS011;39629;51.400;5.494;2022-11-15T05:37:44;17.05;;;8.57;;
47896;SDS011;39629;51.400;5.494;2022-11-15T05:43:04;16.38;;;8.68;;
47896;SDS011;39629;51.400;5.494;2022-11-15T05:48:27;14.10;;;8.20;;
47896;SDS011;39629;51.400;5.494;2022-11-15T05:53:47;15.20;;;7.75;;
47896;SDS011;39629;51.400;5.494;2022-11-15T05:59:08;14.48;;;7.47;;
47896;SDS011;39629;51.400;5.494;2022-11-15T06:04:30;14.68;;;7.95;;
47896;SDS011;39629;51.400;5.494;2022-11-15T06:09:51;12.35;;;7.15;;
47896;SDS011;39629;51.400;5.494;2022-11-15T06:15:11;16.08;;;7.50;;
47896;SDS011;39629;51.400;5.494;2022-11-15T06:20:32;11.80;;;6.80;;
47896;SDS011;39629;51.400;5.494;2022-11-15T06:25:52;15.15;;;8.18;;
47896;SDS011;39629;51.400;5.494;2022-11-15T06:31:13;12.68;;;6.78;;
47896;SDS011;39629;51.400;5.494;2022-11-15T06:36:35;13.65;;;7.40;;
47896;SDS011;39629;51.400;5.494;2022-11-15T06:41:55;11.50;;;6.65;;
47896;SDS011;39629;51.400;5.494;2022-11-15T06:47:16;12.20;;;6.60;;
47896;SDS011;39629;51.400;5.494;2022-11-15T06:52:37;13.57;;;6.53;;
47896;SDS011;39629;51.400;5.494;2022-11-15T06:57:57;14.95;;;7.20;;
47896;SDS011;39629;51.400;5.494;2022-11-15T07:03:18;14.50;;;6.97;;
47896;SDS011;39629;51.400;5.494;2022-11-15T07:08:39;12.05;;;5.85;;
47896;SDS011;39629;51.400;5.494;2022-11-15T07:14:00;11.27;;;5.90;;
47896;SDS011;39629;51.400;5.494;2022-11-15T07:19:20;11.52;;;5.57;;
47896;SDS011;39629;51.400;5.494;2022-11-15T07:24:42;10.07;;;5.55;;
47896;SDS011;39629;51.400;5.494;2022-11-15T07:30:02;11.77;;;5.40;;
47896;SDS011;39629;51.400;5.494;2022-11-15T07:35:23;11.80;;;5.60;;
47896;SDS011;39629;51.400;5.494;2022-11-15T07:40:46;7.82;;;4.80;;
47896;SDS011;39629;51.400;5.494;2022-11-15T07:46:06;12.25;;;5.53;;
47896;SDS011;39629;51.400;5.494;2022-11-15T07:51:28;11.75;;;5.38;;
47896;SDS011;39629;51.400;5.494;2022-11-15T07:56:50;7.47;;;4.55;;
47896;SDS011;39629;51.400;5.494;2022-11-15T08:02:10;7.85;;;4.68;;
47896;SDS011;39629;51.400;5.494;2022-11-15T08:07:30;7.88;;;4.13;;
47896;SDS011;39629;51.400;5.494;2022-11-15T08:12:57;7.70;;;4.20;;
47896;SDS011;39629;51.400;5.494;2022-11-15T08:18:18;8.75;;;4.15;;
47896;SDS011;39629;51.400;5.494;2022-11-15T08:23:38;6.80;;;3.65;;
47896;SDS011;39629;51.400;5.494;2022-11-15T08:29:00;8.52;;;3.90;;
47896;SDS011;39629;51.400;5.494;2022-11-15T08:34:20;7.07;;;3.20;;
47896;SDS011;39629;51.400;5.494;2022-11-15T08:39:40;7.22;;;3.20;;
47896;SDS011;39629;51.400;5.494;2022-11-15T08:45:02;7.53;;;3.33;;
47896;SDS011;39629;51.400;5.494;2022-11-15T08:50:23;5.75;;;3.05;;
47896;SDS011;39629;51.400;5.494;2022-11-15T08:55:43;5.15;;;2.70;;
47896;SDS011;39629;51.400;5.494;2022-11-15T09:01:05;4.53;;;2.53;;
47896;SDS011;39629;51.400;5.494;2022-11-15T09:06:26;4.45;;;2.50;;
47896;SDS011;39629;51.400;5.494;2022-11-15T09:11:46;4.78;;;2.28;;
47896;SDS011;39629;51.400;5.494;2022-11-15T09:17:09;4.32;;;2.30;;
47896;SDS011;39629;51.400;5.494;2022-11-15T09:22:29;5.63;;;2.42;;
47896;SDS011;39629;51.400;5.494;2022-11-15T09:27:50;3.92;;;2.22;;
47896;SDS011;39629;51.400;5.494;2022-11-15T09:33:12;2.97;;;1.65;;
47896;SDS011;39629;51.400;5.494;2022-11-15T09:38:32;4.13;;;1.50;;
47896;SDS011;39629;51.400;5.494;2022-11-15T09:43:55;3.28;;;1.33;;
47896;SDS011;39629;51.400;5.494;2022-11-15T09:49:28;2.40;;;0.82;;
47896;SDS011;39629;51.400;5.494;2022-11-15T09:54:51;4.43;;;1.45;;
47896;SDS011;39629;51.400;5.494;2022-11-15T10:00:02;4.07;;;1.23;;
47896;SDS011;39629;51.400;5.494;2022-11-15T10:05:16;4.97;;;0.90;;
47896;SDS011;39629;51.400;5.494;2022-11-15T10:10:23;5.35;;;1.08;;
47896;SDS011;39629;51.400;5.494;2022-11-15T10:15:28;4.70;;;1.10;;
47896;SDS011;39629;51.400;5.494;2022-11-15T10:20:32;3.20;;;1.08;;
47896;SDS011;39629;51.400;5.494;2022-11-15T10:25:41;3.33;;;1.10;;
47896;SDS011;39629;51.400;5.494;2022-11-15T10:30:44;2.05;;;0.75;;
47896;SDS011;39629;51.400;5.494;2022-11-15T10:35:49;2.75;;;0.90;;
47896;SDS011;39629;51.400;5.494;2022-11-15T10:41:22;2.92;;;0.70;;
47896;SDS011;39629;51.400;5.494;2022-11-15T10:46:31;1.70;;;0.70;;
47896;SDS011;39629;51.400;5.494;2022-11-15T10:51:34;4.40;;;1.10;;
47896;SDS011;39629;51.400;5.494;2022-11-15T10:56:44;4.55;;;0.73;;
47896;SDS011;39629;51.400;5.494;2022-11-15T11:01:51;1.90;;;0.73;;
47896;SDS011;39629;51.400;5.494;2022-11-15T11:06:55;2.10;;;0.80;;
47896;SDS011;39629;51.400;5.494;2022-11-15T11:11:58;3.38;;;0.80;;
47896;SDS011;39629;51.400;5.494;2022-11-15T11:17:02;1.85;;;0.63;;
47896;SDS011;39629;51.400;5.494;2022-11-15T11:22:11;2.65;;;0.75;;
47896;SDS011;39629;51.400;5.494;2022-11-15T11:27:26;6.25;;;0.82;;
47896;SDS011;39629;51.400;5.494;2022-11-15T11:32:49;7.28;;;0.88;;
47896;SDS011;39629;51.400;5.494;2022-11-15T11:38:01;2.63;;;0.77;;
47896;SDS011;39629;51.400;5.494;2022-11-15T11:43:18;2.35;;;0.70;;
47896;SDS011;39629;51.400;5.494;2022-11-15T11:48:33;0.93;;;0.60;;
47896;SDS011;39629;51.400;5.494;2022-11-15T11:53:45;5.05;;;0.80;;
47896;SDS011;39629;51.400;5.494;2022-11-15T11:58:52;3.78;;;0.90;;
47896;SDS011;39629;51.400;5.494;2022-11-15T12:03:57;1.80;;;0.80;;
47896;SDS011;39629;51.400;5.494;2022-11-15T12:09:06;2.65;;;0.55;;
47896;SDS011;39629;51.400;5.494;2022-11-15T12:14:21;1.60;;;0.50;;
47896;SDS011;39629;51.400;5.494;2022-11-15T12:19:28;2.80;;;0.70;;
47896;SDS011;39629;51.400;5.494;2022-11-15T12:24:33;5.30;;;0.70;;
47896;SDS011;39629;51.400;5.494;2022-11-15T12:29:41;3.00;;;0.60;;
47896;SDS011;39629;51.400;5.494;2022-11-15T12:34:48;4.88;;;0.73;;
47896;SDS011;39629;51.400;5.494;2022-11-15T12:45:36;2.15;;;0.47;;
47896;SDS011;39629;51.400;5.494;2022-11-15T12:50:55;2.35;;;0.60;;
47896;SDS011;39629;51.400;5.494;2022-11-15T13:07:05;2.92;;;0.50;;
47896;SDS011;39629;51.400;5.494;2022-11-15T13:12:08;4.55;;;0.73;;
47896;SDS011;39629;51.400;5.494;2022-11-15T13:22:39;3.58;;;0.60;;
47896;SDS011;39629;51.400;5.494;2022-11-15T13:27:56;6.28;;;0.70;;
47896;SDS011;39629;51.400;5.494;2022-11-15T13:33:00;4.65;;;0.55;;
47896;SDS011;39629;51.400;5.494;2022-11-15T13:38:25;2.65;;;0.63;;
47896;SDS011;39629;51.400;5.494;2022-11-15T13:43:29;0.90;;;0.50;;
47896;SDS011;39629;51.400;5.494;2022-11-15T13:48:35;3.45;;;0.57;;
47896;SDS011;39629;51.400;5.494;2022-11-15T13:53:38;9.10;;;0.98;;
47896;SDS011;39629;51.400;5.494;2022-11-15T13:58:42;2.53;;;0.73;;
47896;SDS011;39629;51.400;5.494;2022-11-15T14:03:46;2.45;;;0.60;;
47896;SDS011;39629;51.400;5.494;2022-11-15T14:08:59;2.20;;;0.60;;
47896;SDS011;39629;51.400;5.494;2022-11-15T14:14:10;1.10;;;0.50;;
47896;SDS011;39629;51.400;5.494;2022-11-15T14:24:39;2.95;;;0.60;;
47896;SDS011;39629;51.400;5.494;2022-11-15T14:29:41;4.20;;;0.53;;
47896;SDS011;39629;51.400;5.494;2022-11-15T14:34:42;4.72;;;1.15;;
47896;SDS011;39629;51.400;5.494;2022-11-15T14:39:46;2.55;;;0.70;;
47896;SDS011;39629;51.400;5.494;2022-11-15T14:44:48;4.43;;;0.77;;
47896;SDS011;39629;51.400;5.494;2022-11-15T14:49:50;2.65;;;0.80;;
47896;SDS011;39629;51.400;5.494;2022-11-15T14:54:53;1.75;;;0.68;;
47896;SDS011;39629;51.400;5.494;2022-11-15T14:59:54;4.38;;;0.68;;
47896;SDS011;39629;51.400;5.494;2022-11-15T15:04:56;6.60;;;0.98;;
47896;SDS011;39629;51.400;5.494;2022-11-15T15:10:02;3.30;;;0.90;;
47896;SDS011;39629;51.400;5.494;2022-11-15T15:15:05;1.77;;;0.63;;
47896;SDS011;39629;51.400;5.494;2022-11-15T15:20:13;2.67;;;0.95;;
47896;SDS011;39629;51.400;5.494;2022-11-15T15:25:23;5.35;;;1.08;;
47896;SDS011;39629;51.400;5.494;2022-11-15T15:30:28;3.25;;;0.93;;
47896;SDS011;39629;51.400;5.494;2022-11-15T15:35:32;3.03;;;0.98;;
47896;SDS011;39629;51.400;5.494;2022-11-15T15:40:36;3.78;;;1.00;;
47896;SDS011;39629;51.400;5.494;2022-11-15T15:45:38;2.80;;;1.10;;
47896;SDS011;39629;51.400;5.494;2022-11-15T15:50:41;3.43;;;1.10;;
47896;SDS011;39629;51.400;5.494;2022-11-15T15:55:45;3.13;;;1.17;;
47896;SDS011;39629;51.400;5.494;2022-11-15T16:00:46;3.45;;;1.10;;
47896;SDS011;39629;51.400;5.494;2022-11-15T16:05:49;2.70;;;1.05;;
47896;SDS011;39629;51.400;5.494;2022-11-15T16:10:52;3.38;;;1.02;;
47896;SDS011;39629;51.400;5.494;2022-11-15T16:15:54;4.70;;;1.60;;
47896;SDS011;39629;51.400;5.494;2022-11-15T16:20:56;1.83;;;1.15;;
47896;SDS011;39629;51.400;5.494;2022-11-15T16:25:59;2.40;;;1.30;;
47896;SDS011;39629;51.400;5.494;2022-11-15T16:31:04;1.98;;;1.10;;
47896;SDS011;39629;51.400;5.494;2022-11-15T16:36:14;3.85;;;1.50;;
47896;SDS011;39629;51.400;5.494;2022-11-15T16:41:21;2.75;;;1.50;;
47896;SDS011;39629;51.400;5.494;2022-11-15T16:46:24;4.70;;;1.70;;
47896;SDS011;39629;51.400;5.494;2022-11-15T16:51:26;5.50;;;1.70;;
47896;SDS011;39629;51.400;5.494;2022-11-15T16:56:29;4.03;;;1.60;;
47896;SDS011;39629;51.400;5.494;2022-11-15T17:01:32;3.20;;;1.80;;
47896;SDS011;39629;51.400;5.494;2022-11-15T17:06:35;6.43;;;2.00;;
47896;SDS011;39629;51.400;5.494;2022-11-15T17:11:39;3.20;;;1.65;;
47896;SDS011;39629;51.400;5.494;2022-11-15T17:16:41;5.07;;;1.90;;
47896;SDS011;39629;51.400;5.494;2022-11-15T17:21:44;3.75;;;2.10;;
47896;SDS011;39629;51.400;5.494;2022-11-15T17:26:47;5.30;;;2.22;;
47896;SDS011;39629;51.400;5.494;2022-11-15T17:31:49;3.25;;;1.98;;
47896;SDS011;39629;51.400;5.494;2022-11-15T17:36:51;6.70;;;1.88;;
47896;SDS011;39629;51.400;5.494;2022-11-15T17:41:53;3.00;;;1.52;;
47896;SDS011;39629;51.400;5.494;2022-11-15T17:46:55;3.08;;;2.15;;
47896;SDS011;39629;51.400;5.494;2022-11-15T17:51:57;3.67;;;1.90;;
47896;SDS011;39629;51.400;5.494;2022-11-15T17:56:59;4.60;;;1.85;;
47896;SDS011;39629;51.400;5.494;2022-11-15T18:02:01;3.88;;;2.10;;
47896;SDS011;39629;51.400;5.494;2022-11-15T18:07:03;3.40;;;2.00;;
47896;SDS011;39629;51.400;5.494;2022-11-15T18:12:06;3.53;;;2.15;;
47896;SDS011;39629;51.400;5.494;2022-11-15T18:17:08;4.40;;;2.13;;
47896;SDS011;39629;51.400;5.494;2022-11-15T18:22:10;3.42;;;2.40;;
47896;SDS011;39629;51.400;5.494;2022-11-15T18:27:13;8.20;;;2.53;;
47896;SDS011;39629;51.400;5.494;2022-11-15T18:32:14;3.83;;;2.20;;
47896;SDS011;39629;51.400;5.494;2022-11-15T18:37:16;4.63;;;2.47;;
47896;SDS011;39629;51.400;5.494;2022-11-15T18:42:19;3.90;;;2.13;;
47896;SDS011;39629;51.400;5.494;2022-11-15T18:47:21;4.70;;;2.72;;
47896;SDS011;39629;51.400;5.494;2022-11-15T18:52:23;5.65;;;2.50;;
47896;SDS011;39629;51.400;5.494;2022-11-15T18:57:26;4.55;;;2.75;;
47896;SDS011;39629;51.400;5.494;2022-11-15T19:02:27;4.82;;;2.35;;
47896;SDS011;39629;51.400;5.494;2022-11-15T19:07:29;4.40;;;2.67;;
47896;SDS011;39629;51.400;5.494;2022-11-15T19:12:32;4.38;;;2.80;;
47896;SDS011;39629;51.400;5.494;2022-11-15T19:17:33;4.97;;;2.55;;
47896;SDS011;39629;51.400;5.494;2022-11-15T19:22:35;3.15;;;2.30;;
47896;SDS011;39629;51.400;5.494;2022-11-15T19:27:38;5.10;;;2.92;;
47896;SDS011;39629;51.400;5.494;2022-11-15T19:32:39;8.30;;;2.97;;
47896;SDS011;39629;51.400;5.494;2022-11-15T19:37:41;4.85;;;2.80;;
47896;SDS011;39629;51.400;5.494;2022-11-15T19:42:44;4.97;;;2.97;;
47896;SDS011;39629;51.400;5.494;2022-11-15T19:47:45;5.32;;;3.38;;
47896;SDS011;39629;51.400;5.494;2022-11-15T19:52:47;4.90;;;3.10;;
47896;SDS011;39629;51.400;5.494;2022-11-15T19:57:50;6.72;;;3.50;;
47896;SDS011;39629;51.400;5.494;2022-11-15T20:02:51;5.28;;;3.50;;
47896;SDS011;39629;51.400;5.494;2022-11-15T20:07:53;5.25;;;3.58;;
47896;SDS011;39629;51.400;5.494;2022-11-15T20:12:56;5.47;;;3.50;;
47896;SDS011;39629;51.400;5.494;2022-11-15T20:17:57;5.95;;;3.72;;
47896;SDS011;39629;51.400;5.494;2022-11-15T20:22:59;9.43;;;4.28;;
47896;SDS011;39629;51.400;5.494;2022-11-15T20:28:02;7.22;;;3.90;;
47896;SDS011;39629;51.400;5.494;2022-11-15T20:33:05;5.55;;;3.75;;
47896;SDS011;39629;51.400;5.494;2022-11-15T20:38:06;6.35;;;3.85;;
47896;SDS011;39629;51.400;5.494;2022-11-15T20:43:10;7.15;;;4.45;;
47896;SDS011;39629;51.400;5.494;2022-11-15T20:53:16;8.00;;;4.72;;
47896;SDS011;39629;51.400;5.494;2022-11-15T20:58:20;5.72;;;4.05;;
47896;SDS011;39629;51.400;5.494;2022-11-15T21:03:22;8.80;;;4.47;;
47896;SDS011;39629;51.400;5.494;2022-11-15T21:08:23;6.13;;;4.07;;
47896;SDS011;39629;51.400;5.494;2022-11-15T21:13:26;7.55;;;4.22;;
47896;SDS011;39629;51.400;5.494;2022-11-15T21:18:28;7.75;;;4.82;;
47896;SDS011;39629;51.400;5.494;2022-11-15T21:23:31;8.20;;;5.10;;
47896;SDS011;39629;51.400;5.494;2022-11-15T21:28:34;10.57;;;5.07;;
47896;SDS011;39629;51.400;5.494;2022-11-15T21:33:35;7.38;;;4.65;;
47896;SDS011;39629;51.400;5.494;2022-11-15T21:38:37;8.00;;;4.53;;
47896;SDS011;39629;51.400;5.494;2022-11-15T21:43:40;6.57;;;4.47;;
47896;SDS011;39629;51.400;5.494;2022-11-15T21:48:41;6.57;;;4.68;;
47896;SDS011;39629;51.400;5.494;2022-11-15T21:53:43;7.60;;;4.13;;
47896;SDS011;39629;51.400;5.494;2022-11-15T21:58:46;7.45;;;4.90;;
47896;SDS011;39629;51.400;5.494;2022-11-15T22:03:48;8.25;;;4.97;;
47896;SDS011;39629;51.400;5.494;2022-11-15T22:08:49;8.32;;;4.70;;
47896;SDS011;39629;51.400;5.494;2022-11-15T22:13:52;8.15;;;4.60;;
47896;SDS011;39629;51.400;5.494;2022-11-15T22:18:54;8.75;;;4.93;;
47896;SDS011;39629;51.400;5.494;2022-11-15T22:23:56;6.53;;;4.30;;
47896;SDS011;39629;51.400;5.494;2022-11-15T22:28:59;6.10;;;4.18;;
47896;SDS011;39629;51.400;5.494;2022-11-15T22:34:00;6.63;;;4.47;;
47896;SDS011;39629;51.400;5.494;2022-11-15T22:39:02;7.95;;;4.25;;
47896;SDS011;39629;51.400;5.494;2022-11-15T22:44:05;6.82;;;4.03;;
47896;SDS011;39629;51.400;5.494;2022-11-15T22:49:07;5.47;;;3.80;;
47896;SDS011;39629;51.400;5.494;2022-11-15T22:54:09;8.13;;;4.40;;
47896;SDS011;39629;51.400;5.494;2022-11-15T22:59:12;6.00;;;4.05;;
47896;SDS011;39629;51.400;5.494;2022-11-15T23:04:13;6.88;;;3.90;;
47896;SDS011;39629;51.400;5.494;2022-11-15T23:09:15;6.32;;;4.22;;
47896;SDS011;39629;51.400;5.494;2022-11-15T23:14:18;8.48;;;4.90;;
47896;SDS011;39629;51.400;5.494;2022-11-15T23:19:20;6.82;;;4.07;;
47896;SDS011;39629;51.400;5.494;2022-11-15T23:24:22;6.47;;;4.25;;
47896;SDS011;39629;51.400;5.494;2022-11-15T23:29:26;6.85;;;4.10;;
47896;SDS011;39629;51.400;5.494;2022-11-15T23:34:28;6.85;;;4.45;;
47896;SDS011;39629;51.400;5.494;2022-11-15T23:39:30;6.85;;;3.80;;
47896;SDS011;39629;51.400;5.494;2022-11-15T23:44:34;8.35;;;4.28;;
47896;SDS011;39629;51.400;5.494;2022-11-15T23:49:35;7.20;;;4.00;;
47896;SDS011;39629;51.400;5.494;2022-11-15T23:54:37;6.97;;;3.92;;
47896;SDS011;39629;51.400;5.494;2022-11-15T23:59:40;5.25;;;3.75;;
